Flight Track Log - Related Links

Times and Time Zones

All times are in EDT time to prevent confusion due to time zone crossing. See the ASH3751 flight status page for this flight to view local times or setup timezone preferences in your user account.

Time Position Orientation Groundspeed Altitude Reporting Facility
EDT Latitude Longitude Course Direction KTS MPH feet Rate Location/Type
Tue 10:36:19 PM 42.0333 -87.9500 86° East 210 242 2,800  Level Chicago TRACON
Tue 10:37:13 PM 42.0833 -87.9000 37° Northeast 269 310 4,400 1,842 Climbing Chicago TRACON
Tue 10:38:00 PM 42.1413 -87.4228 63° Northeast  Level FlightAware
Tue 10:38:13 PM 42.1308 -87.8389 44° Northeast 269 310 6,300  Level Chicago Center
Tue 10:39:00 PM 42.1975 -87.2576 66° East  Level FlightAware
Tue 10:39:15 PM 42.1861 -87.7619 46° Northeast 284 327 9,000  Level Chicago Center
Tue 10:40:00 PM 42.2528 -87.0916 66° East  Level FlightAware
Tue 10:40:16 PM 42.2008 -87.6442 80° East 315 362 11,700  Level Chicago Center
Tue 10:41:00 PM 42.2697 -86.9387 86° East  Level FlightAware
Tue 10:41:18 PM 42.2219 -87.5019 79° East 324 373 14,200  Level Chicago Center
Tue 10:42:19 PM 42.2383 -87.3719 80° East 348 400 15,900 2,016 Climbing Chicago Center
Tue 10:43:20 PM 42.2569 -87.2314 80° East 377 434 18,300 1,902 Climbing Chicago Center
Tue 10:44:22 PM 42.2747 -87.0897 80° East 385 443 19,800 1,415 Climbing Chicago Center
Tue 10:45:23 PM 42.2856 -86.9458 84° East 387 445 21,200 1,377 Climbing Chicago Center
Tue 10:46:24 PM 42.2906 -86.7958 87° East 395 455 22,600 1,463 Climbing Chicago Center
Tue 10:47:26 PM 42.2953 -86.6400 88° East 408 470 24,200 1,561 Climbing Chicago Center
Tue 10:48:27 PM 42.3028 -86.4561 87° East 425 489 25,800 1,525 Climbing Chicago Center
Tue 10:49:28 PM 42.3089 -86.2922 87° East 438 504 27,300 1,366 Climbing Chicago Center
Tue 10:50:30 PM 42.3136 -86.1278 88° East 441 507 28,600 1,268 Climbing Chicago Center
Tue 10:51:31 PM 42.3131 -85.9575 90° East 454 522 29,900 1,131 Climbing Chicago Center
Tue 10:52:32 PM 42.3111 -85.7814 91° East 469 540 30,900 1,082 Climbing Chicago Center
Tue 10:53:33 PM 42.3086 -85.6031 91° East 476 548 32,100 984 Climbing Chicago Center
Tue 10:54:34 PM 42.3061 -85.4197 91° East 486 559 32,900 878 Climbing Chicago Center
Tue 10:55:36 PM 42.3028 -85.1969 91° East 493 567 33,900 1,073 Climbing Chicago Center
Tue 10:56:37 PM 42.2997 -85.0103 91° East 498 573 35,100 1,033 Climbing Chicago Center
Tue 10:57:38 PM 42.2953 -84.8261 92° East 495 570 36,000 934 Climbing Chicago Center
Tue 10:58:39 PM 42.2917 -84.6428 91° East 491 565 37,000 492 Climbing Chicago Center
Tue 10:59:40 PM 42.2892 -84.4581 91° East 493 567 37,000  Level Chicago Center
Tue 11:00:19 PM 42.3053 -84.3317 80° East 478 550 37,000  Level Cleveland Center
Tue 11:01:19 PM 42.3297 -84.1531 79° East 478 550 37,000  Level Cleveland Center
Tue 11:02:19 PM 42.3561 -83.9692 79° East 483 556 37,000  Level Cleveland Center
Tue 11:03:19 PM 42.3819 -83.7933 79° East 483 556 37,000  Level Cleveland Center
Tue 11:04:19 PM 42.4078 -83.6147 79° East 483 556 37,000  Level Cleveland Center
Tue 11:05:19 PM 42.4100 -83.4433 89° East 489 563 37,000  Level Cleveland Center
Tue 11:06:19 PM 42.4186 -83.2581 86° East 493 567 37,000  Level Cleveland Center
Tue 11:07:19 PM 42.4272 -83.0669 86° East 493 567 37,000  Level Cleveland Center
Tue 11:08:19 PM 42.4308 -82.8844 88° East 493 567 37,000  Level Cleveland Center
Tue 11:09:19 PM 42.4367 -82.6961 88° East 493 567 37,000  Level Cleveland Center
Tue 11:10:19 PM 42.4439 -82.5161 87° East 493 567 37,000  Level Cleveland Center
Tue 11:11:19 PM 42.4469 -82.3306 89° East 493 567 37,000  Level Cleveland Center
Tue 11:12:19 PM 42.4539 -82.1253 87° East 493 567 37,000  Level Cleveland Center
Tue 11:13:19 PM 42.4583 -81.9567 88° East 493 567 37,000  Level Cleveland Center
Tue 11:14:19 PM 42.4647 -81.7542 87° East 493 567 37,000  Level Cleveland Center
Tue 11:15:19 PM 42.4664 -81.5683 89° East 493 567 37,000  Level Cleveland Center
Tue 11:16:19 PM 42.4719 -81.3939 87° East 494 568 37,000  Level Cleveland Center
Tue 11:17:19 PM 42.4731 -81.2081 89° East 494 568 37,000  Level Cleveland Center
Tue 11:18:19 PM 42.4781 -81.0167 88° East 494 568 37,000 50 Level Cleveland Center
Tue 11:19:19 PM 42.4828 -80.8281 88° East 494 568 37,100  Climbing Cleveland Center
Tue 11:20:19 PM 42.4956 -80.6422 85° East 494 568 37,000 -50 Descending Cleveland Center
Tue 11:21:19 PM 42.5081 -80.4564 85° East 499 574 37,000  Level Cleveland Center
Tue 11:22:19 PM 42.5203 -80.2481 85° East 499 574 37,000  Level Cleveland Center
Tue 11:23:19 PM 42.5342 -80.0619 84° East 499 574 37,000  Level Cleveland Center
Tue 11:24:19 PM 42.5478 -79.8758 84° East 499 574 37,000  Level Cleveland Center
Tue 11:25:19 PM 42.5567 -79.6869 86° East 499 574 37,000  Level Cleveland Center
Tue 11:26:19 PM 42.5678 -79.4978 85° East 499 574 37,000  Level Cleveland Center
Tue 11:27:19 PM 42.5783 -79.3086 86° East 499 574 37,000  Level Cleveland Center
Tue 11:28:19 PM 42.5886 -79.1194 86° East 499 574 37,000  Level Cleveland Center
Tue 11:29:19 PM 42.5986 -78.9331 86° East 499 574 37,000  Level Cleveland Center
Tue 11:30:19 PM 42.6081 -78.7439 86° East 499 574 37,000  Level Cleveland Center
Tue 11:31:19 PM 42.6175 -78.5544 86° East 499 574 37,000  Level Cleveland Center
Tue 11:32:19 PM 42.6267 -78.3681 86° East 499 574 37,000  Level Cleveland Center
Tue 11:33:19 PM 42.6353 -78.1786 86° East 499 574 37,000  Level Cleveland Center
Tue 11:34:19 PM 42.6436 -77.9892 87° East 499 574 37,000  Level Cleveland Center
Tue 11:35:19 PM 42.6497 -77.7997 87° East 499 574 37,000  Level Cleveland Center
Tue 11:36:19 PM 42.6575 -77.6103 87° East 504 580 37,000 -1,061 Level Cleveland Center
Tue 11:38:03 PM 42.6697 -77.2953 87° East 510 587 34,100 -2,268 Descending Boston Center
Tue 11:39:03 PM 42.6783 -77.0922 87° East 510 587 30,800 -2,550 Descending Boston Center
Tue 11:40:03 PM 42.6839 -76.9033 88° East 499 574 29,000 -900 Descending Boston Center
Tue 11:41:03 PM 42.6908 -76.7203 87° East 493 567 29,000  Level Boston Center
Tue 11:42:03 PM 42.6958 -76.5311 88° East 493 567 29,000  Level Boston Center
Tue 11:43:03 PM 42.7022 -76.3422 87° East 493 567 29,000 -45 Level Boston Center
Tue 11:44:15 PM 42.7094 -76.1308 87° East 493 567 28,900 -955 Descending Boston Center
Tue 11:45:15 PM 42.7133 -75.9444 88° East 493 567 26,900 -2,050 Descending Boston Center
Tue 11:46:15 PM 42.7186 -75.7694 88° East 486 559 24,800 -2,050 Descending Boston Center
Tue 11:47:15 PM 42.7231 -75.6086 88° East 452 520 22,800 -2,000 Descending Boston Center
Tue 11:48:15 PM 42.7253 -75.4503 89° East 430 495 20,800 -2,000 Descending Boston Center
Tue 11:49:15 PM 42.7314 -75.2981 87° East 409 471 18,800 -2,300 Descending Boston Center
Tue 11:50:15 PM 42.7333 -75.1283 89° East 399 459 16,200 -2,300 Descending Boston Center
Tue 11:51:15 PM 42.7344 -74.9869 89° East 387 445 14,200 -2,000 Descending Boston Center
Tue 11:52:15 PM 42.7378 -74.8431 88° East 381 438 12,200 -1,600 Descending Boston Center
Tue 11:53:15 PM 42.7386 -74.6933 90° East 395 455 11,000 -742 Descending Boston Center
Tue 11:53:44 PM 42.7381 -74.6225 91° East 398 458 11,100  Climbing Boston Center
Tue 11:54:15 PM 42.7394 -74.5433 89° East 395 455 11,000  Descending Boston Center
Tue 11:54:57 PM 42.7369 -74.4444 92° East 386 444 11,100  Climbing Boston Center
Tue 11:55:15 PM 42.7336 -74.4047 97° East 381 438 11,000 -1,000 Descending Boston Center
Tue 11:55:57 PM 42.7183 -74.3136 103° East 334 384 10,100 -1,500 Descending Boston Center
Tue 11:56:15 PM 42.7147 -74.2797 98° East 343 395 9,500 -1,869 Descending Boston Center
Tue 11:56:58 PM 42.7017 -74.1917 101° East 321 369 8,200 -1,800 Descending Boston Center
Tue 11:57:15 PM 42.6958 -74.1578 103° East 326 375 7,700 -2,164 Descending Boston Center
Tue 11:57:59 PM 42.6761 -74.0781 109° East 317 365 6,000 -2,000 Descending Boston Center
Tue 11:58:15 PM 42.6744 -74.0583 97° East 315 362 5,700 -2,400 Descending Boston Center
Tue 11:58:59 PM 42.6486 -73.9644 110° East 306 352 3,600 -2,200 Descending Boston Center
Tue 11:59:15 PM 42.6447 -73.9472 107° East 310 357 3,500 -590 Descending Boston Center
Wed 12:00:00 AM 42.6247 -73.8678 109° East 263 303 3,000 -600 Descending Boston Center
Wed 12:00:15 AM 42.6208 -73.8508 107° East 290 334 2,900 -984 Descending Boston Center
Wed 12:01:01 AM 42.6281 -73.7833 82° East 202 232 2,000 -679 Descending Boston Center
Wed 12:02:01 AM 42.6653 -73.7953 347° North 108 124 1,700 -300 Descending Boston Center

Login

Don't have an account? Register now (free) for customized features, flight alerts, and more!